sensor_id;sensor_type;location;lat;lon;timestamp;pressure;altitude;pressure_sealevel;temperature;humidity
58955;BME280;45815;52.334;5.024;2022-08-24T00:01:50;101797.44;;;21.79;100.00
58955;BME280;45815;52.334;5.024;2022-08-24T00:04:15;101794.75;;;21.79;100.00
58955;BME280;45815;52.334;5.024;2022-08-24T00:06:40;101793.88;;;21.80;100.00
58955;BME280;45815;52.334;5.024;2022-08-24T00:09:06;101790.22;;;21.84;100.00
58955;BME280;45815;52.334;5.024;2022-08-24T00:11:31;101785.75;;;21.86;100.00
58955;BME280;45815;52.334;5.024;2022-08-24T00:13:56;101790.19;;;21.88;100.00
58955;BME280;45815;52.334;5.024;2022-08-24T00:16:22;101785.69;;;21.90;100.00
58955;BME280;45815;52.334;5.024;2022-08-24T00:18:48;101786.56;;;21.91;100.00
58955;BME280;45815;52.334;5.024;2022-08-24T00:21:13;101791.00;;;21.93;100.00
58955;BME280;45815;52.334;5.024;2022-08-24T00:23:39;101782.09;;;21.93;100.00
58955;BME280;45815;52.334;5.024;2022-08-24T00:26:04;101784.75;;;21.96;100.00
58955;BME280;45815;52.334;5.024;2022-08-24T00:28:30;101781.16;;;21.97;100.00
58955;BME280;45815;52.334;5.024;2022-08-24T00:30:55;101789.13;;;22.00;100.00
58955;BME280;45815;52.334;5.024;2022-08-24T00:33:20;101782.03;;;21.99;100.00
58955;BME280;45815;52.334;5.024;2022-08-24T00:35:46;101785.59;;;22.00;100.00
58955;BME280;45815;52.334;5.024;2022-08-24T00:38:11;101789.13;;;22.02;100.00
58955;BME280;45815;52.334;5.024;2022-08-24T00:40:38;101789.19;;;21.97;100.00
58955;BME280;45815;52.334;5.024;2022-08-24T00:43:05;101782.09;;;21.93;100.00
58955;BME280;45815;52.334;5.024;2022-08-24T00:45:33;101786.56;;;21.94;100.00
58955;BME280;45815;52.334;5.024;2022-08-24T00:48:00;101787.44;;;21.96;100.00
58955;BME280;45815;52.334;5.024;2022-08-24T00:50:49;101783.78;;;22.00;100.00
58955;BME280;45815;52.334;5.024;2022-08-24T00:53:15;101781.97;;;22.02;100.00
58955;BME280;45815;52.334;5.024;2022-08-24T00:55:45;101778.41;;;22.03;100.00
58955;BME280;45815;52.334;5.024;2022-08-24T00:58:13;101774.03;;;21.98;100.00
58955;BME280;45815;52.334;5.024;2022-08-24T01:00:41;101774.06;;;21.96;100.00
58955;BME280;45815;52.334;5.024;2022-08-24T01:03:08;101781.16;;;21.96;100.00
58955;BME280;45815;52.334;5.024;2022-08-24T01:05:34;101777.63;;;21.93;100.00
58955;BME280;45815;52.334;5.024;2022-08-24T01:08:00;101778.56;;;21.91;100.00
58955;BME280;45815;52.334;5.024;2022-08-24T01:10:26;101779.53;;;21.85;100.00
58955;BME280;45815;52.334;5.024;2022-08-24T01:12:56;101776.00;;;21.82;100.00
58955;BME280;45815;52.334;5.024;2022-08-24T01:15:23;101780.53;;;21.78;100.00
58955;BME280;45815;52.334;5.024;2022-08-24T01:17:48;101773.44;;;21.76;100.00
58955;BME280;45815;52.334;5.024;2022-08-24T01:20:33;101781.44;;;21.74;100.00
58955;BME280;45815;52.334;5.024;2022-08-24T01:23:07;101777.09;;;21.68;100.00
58955;BME280;45815;52.334;5.024;2022-08-24T01:25:35;101778.88;;;21.66;100.00
58955;BME280;45815;52.334;5.024;2022-08-24T01:28:06;101786.91;;;21.65;100.00
58955;BME280;45815;52.334;5.024;2022-08-24T01:30:33;101784.28;;;21.60;100.00
58955;BME280;45815;52.334;5.024;2022-08-24T01:33:00;101786.09;;;21.58;100.00
58955;BME280;45815;52.334;5.024;2022-08-24T01:35:26;101779.88;;;21.58;100.00
58955;BME280;45815;52.334;5.024;2022-08-24T01:37:52;101783.47;;;21.55;100.00
58955;BME280;45815;52.334;5.024;2022-08-24T01:40:20;101782.63;;;21.50;100.00
58955;BME280;45815;52.334;5.024;2022-08-24T01:42:48;101787.13;;;21.46;100.00
58955;BME280;45815;52.334;5.024;2022-08-24T01:45:14;101795.16;;;21.45;100.00
58955;BME280;45815;52.334;5.024;2022-08-24T01:47:40;101799.63;;;21.43;100.00
58955;BME280;45815;52.334;5.024;2022-08-24T01:50:05;101798.75;;;21.41;100.00
58955;BME280;45815;52.334;5.024;2022-08-24T01:52:31;101796.97;;;21.38;100.00
58955;BME280;45815;52.334;5.024;2022-08-24T01:54:57;101806.78;;;21.38;100.00
58955;BME280;45815;52.334;5.024;2022-08-24T01:57:23;101806.78;;;21.35;100.00
58955;BME280;45815;52.334;5.024;2022-08-24T01:59:49;101808.63;;;21.31;100.00
58955;BME280;45815;52.334;5.024;2022-08-24T02:02:16;101810.44;;;21.29;100.00
58955;BME280;45815;52.334;5.024;2022-08-24T02:04:42;101812.22;;;21.28;100.00
58955;BME280;45815;52.334;5.024;2022-08-24T02:07:07;101814.91;;;21.25;100.00
58955;BME280;45815;52.334;5.024;2022-08-24T02:09:34;101809.59;;;21.22;100.00
58955;BME280;45815;52.334;5.024;2022-08-24T02:11:59;101814.97;;;21.19;100.00
58955;BME280;45815;52.334;5.024;2022-08-24T02:14:25;101808.75;;;21.17;100.00
58955;BME280;45815;52.334;5.024;2022-08-24T02:16:50;101807.00;;;21.15;100.00
58955;BME280;45815;52.334;5.024;2022-08-24T02:19:23;101800.78;;;21.11;100.00
58955;BME280;45815;52.334;5.024;2022-08-24T02:21:49;101807.94;;;21.11;100.00
58955;BME280;45815;52.334;5.024;2022-08-24T02:24:15;101811.53;;;21.05;100.00
58955;BME280;45815;52.334;5.024;2022-08-24T02:26:40;101811.56;;;21.02;100.00
58955;BME280;45815;52.334;5.024;2022-08-24T02:29:06;101814.22;;;21.02;100.00
58955;BME280;45815;52.334;5.024;2022-08-24T02:31:32;101818.69;;;21.00;100.00
58955;BME280;45815;52.334;5.024;2022-08-24T02:33:57;101816.94;;;21.00;100.00
58955;BME280;45815;52.334;5.024;2022-08-24T02:36:22;101813.34;;;21.00;100.00
58955;BME280;45815;52.334;5.024;2022-08-24T02:38:48;101813.34;;;21.00;100.00
58955;BME280;45815;52.334;5.024;2022-08-24T02:41:16;101822.28;;;20.99;100.00
58955;BME280;45815;52.334;5.024;2022-08-24T02:43:42;101823.16;;;20.99;100.00
58955;BME280;45815;52.334;5.024;2022-08-24T02:46:14;101825.84;;;20.98;100.00
58955;BME280;45815;52.334;5.024;2022-08-24T02:48:40;101821.38;;;20.95;100.00
58955;BME280;45815;52.334;5.024;2022-08-24T02:51:05;101826.75;;;20.94;100.00
58955;BME280;45815;52.334;5.024;2022-08-24T02:53:31;101825.00;;;20.91;100.00
58955;BME280;45815;52.334;5.024;2022-08-24T02:55:56;101822.34;;;20.90;100.00
58955;BME280;45815;52.334;5.024;2022-08-24T02:58:21;101824.13;;;20.87;100.00
58955;BME280;45815;52.334;5.024;2022-08-24T03:00:47;101815.25;;;20.89;100.00
58955;BME280;45815;52.334;5.024;2022-08-24T03:03:15;101829.47;;;20.87;100.00
58955;BME280;45815;52.334;5.024;2022-08-24T03:05:40;101827.72;;;20.86;100.00
58955;BME280;45815;52.334;5.024;2022-08-24T03:08:06;101833.06;;;20.86;100.00
58955;BME280;45815;52.334;5.024;2022-08-24T03:10:33;101833.06;;;20.85;100.00
58955;BME280;45815;52.334;5.024;2022-08-24T03:13:00;101821.53;;;20.81;100.00
58955;BME280;45815;52.334;5.024;2022-08-24T03:15:25;101822.41;;;20.80;100.00
58955;BME280;45815;52.334;5.024;2022-08-24T03:17:51;101834.00;;;20.79;100.00
58955;BME280;45815;52.334;5.024;2022-08-24T03:20:17;101834.88;;;20.78;100.00
58955;BME280;45815;52.334;5.024;2022-08-24T03:22:43;101832.25;;;20.77;100.00
58955;BME280;45815;52.334;5.024;2022-08-24T03:25:08;101826.03;;;20.75;100.00
58955;BME280;45815;52.334;5.024;2022-08-24T03:27:34;101834.94;;;20.72;100.00
58955;BME280;45815;52.334;5.024;2022-08-24T03:30:00;101834.94;;;20.71;100.00
58955;BME280;45815;52.334;5.024;2022-08-24T03:32:25;101835.81;;;20.70;100.00
58955;BME280;45815;52.334;5.024;2022-08-24T03:34:50;101832.31;;;20.68;100.00
58955;BME280;45815;52.334;5.024;2022-08-24T03:37:16;101826.09;;;20.65;100.00
58955;BME280;45815;52.334;5.024;2022-08-24T03:39:42;101826.97;;;20.64;100.00
58955;BME280;45815;52.334;5.024;2022-08-24T03:42:07;101828.75;;;20.62;100.00
58955;BME280;45815;52.334;5.024;2022-08-24T03:44:32;101824.31;;;20.60;100.00
58955;BME280;45815;52.334;5.024;2022-08-24T03:46:57;101833.28;;;20.56;100.00
58955;BME280;45815;52.334;5.024;2022-08-24T03:49:25;101831.44;;;20.55;100.00
58955;BME280;45815;52.334;5.024;2022-08-24T03:51:50;101836.81;;;20.52;100.00
58955;BME280;45815;52.334;5.024;2022-08-24T03:54:20;101832.38;;;20.49;100.00
58955;BME280;45815;52.334;5.024;2022-08-24T03:56:45;101833.28;;;20.47;100.00
58955;BME280;45815;52.334;5.024;2022-08-24T03:59:11;101846.63;;;20.45;100.00
58955;BME280;45815;52.334;5.024;2022-08-24T04:01:40;101830.63;;;20.43;100.00
58955;BME280;45815;52.334;5.024;2022-08-24T04:04:06;101831.53;;;20.42;100.00
58955;BME280;45815;52.334;5.024;2022-08-24T04:06:34;101834.19;;;20.41;100.00
58955;BME280;45815;52.334;5.024;2022-08-24T04:08:59;101841.31;;;20.40;100.00
58955;BME280;45815;52.334;5.024;2022-08-24T04:11:26;101843.97;;;20.40;100.00
58955;BME280;45815;52.334;5.024;2022-08-24T04:13:52;101844.88;;;20.44;100.00
58955;BME280;45815;52.334;5.024;2022-08-24T04:16:20;101846.63;;;20.45;100.00
58955;BME280;45815;52.334;5.024;2022-08-24T04:18:51;101852.84;;;20.47;100.00
58955;BME280;45815;52.334;5.024;2022-08-24T04:21:19;101853.69;;;20.51;100.00
58955;BME280;45815;52.334;5.024;2022-08-24T04:23:45;101856.38;;;20.51;100.00
58955;BME280;45815;52.334;5.024;2022-08-24T04:26:10;101851.03;;;20.51;100.00
58955;BME280;45815;52.334;5.024;2022-08-24T04:28:36;101849.28;;;20.50;100.00
58955;BME280;45815;52.334;5.024;2022-08-24T04:31:03;101853.72;;;20.49;100.00
58955;BME280;45815;52.334;5.024;2022-08-24T04:33:36;101847.50;;;20.45;100.00
58955;BME280;45815;52.334;5.024;2022-08-24T04:36:05;101852.00;;;20.42;100.00
58955;BME280;45815;52.334;5.024;2022-08-24T04:38:31;101858.22;;;20.39;100.00
58955;BME280;45815;52.334;5.024;2022-08-24T04:41:15;101861.78;;;20.40;100.00
58955;BME280;45815;52.334;5.024;2022-08-24T04:43:42;101868.91;;;20.39;100.00
58955;BME280;45815;52.334;5.024;2022-08-24T04:46:09;101860.91;;;20.39;100.00
58955;BME280;45815;52.334;5.024;2022-08-24T04:48:35;101868.00;;;20.40;100.00
58955;BME280;45815;52.334;5.024;2022-08-24T04:51:04;101873.31;;;20.40;100.00
58955;BME280;45815;52.334;5.024;2022-08-24T04:53:30;101873.28;;;20.43;100.00
58955;BME280;45815;52.334;5.024;2022-08-24T04:55:55;101871.50;;;20.45;100.00
58955;BME280;45815;52.334;5.024;2022-08-24T04:58:22;101867.06;;;20.48;100.00
58955;BME280;45815;52.334;5.024;2022-08-24T05:00:48;101874.19;;;20.47;100.00
58955;BME280;45815;52.334;5.024;2022-08-24T05:03:13;101874.19;;;20.45;100.00
58955;BME280;45815;52.334;5.024;2022-08-24T05:05:43;101874.19;;;20.49;100.00
58955;BME280;45815;52.334;5.024;2022-08-24T05:08:09;101869.69;;;20.51;100.00
58955;BME280;45815;52.334;5.024;2022-08-24T05:10:36;101874.13;;;20.53;100.00
58955;BME280;45815;52.334;5.024;2022-08-24T05:13:02;101876.78;;;20.55;100.00
58955;BME280;45815;52.334;5.024;2022-08-24T05:15:28;101879.47;;;20.55;100.00
58955;BME280;45815;52.334;5.024;2022-08-24T05:17:54;101875.94;;;20.56;100.00
58955;BME280;45815;52.334;5.024;2022-08-24T05:20:20;101880.34;;;20.55;100.00
58955;BME280;45815;52.334;5.024;2022-08-24T05:22:45;101880.38;;;20.57;100.00
58955;BME280;45815;52.334;5.024;2022-08-24T05:25:10;101878.59;;;20.60;100.00
58955;BME280;45815;52.334;5.024;2022-08-24T05:27:37;101884.78;;;20.64;100.00
58955;BME280;45815;52.334;5.024;2022-08-24T05:30:03;101883.91;;;20.65;100.00
58955;BME280;45815;52.334;5.024;2022-08-24T05:32:28;101881.19;;;20.68;100.00
58955;BME280;45815;52.334;5.024;2022-08-24T05:34:54;101882.09;;;20.69;100.00
58955;BME280;45815;52.334;5.024;2022-08-24T05:37:20;101882.97;;;20.72;100.00
58955;BME280;45815;52.334;5.024;2022-08-24T05:40:07;101882.06;;;20.75;100.00
58955;BME280;45815;52.334;5.024;2022-08-24T05:42:35;101883.81;;;20.76;100.00
58955;BME280;45815;52.334;5.024;2022-08-24T05:45:01;101888.25;;;20.78;100.00
58955;BME280;45815;52.334;5.024;2022-08-24T05:47:26;101890.03;;;20.79;100.00
58955;BME280;45815;52.334;5.024;2022-08-24T05:49:56;101893.59;;;20.81;100.00
58955;BME280;45815;52.334;5.024;2022-08-24T05:52:21;101890.88;;;20.83;100.00
58955;BME280;45815;52.334;5.024;2022-08-24T05:54:51;101886.41;;;20.83;100.00
58955;BME280;45815;52.334;5.024;2022-08-24T05:57:17;101882.84;;;20.87;100.00
58955;BME280;45815;52.334;5.024;2022-08-24T05:59:58;101881.06;;;20.90;100.00
58955;BME280;45815;52.334;5.024;2022-08-24T06:02:24;101881.03;;;20.93;100.00
58955;BME280;45815;52.334;5.024;2022-08-24T06:04:49;101878.34;;;20.96;100.00
58955;BME280;45815;52.334;5.024;2022-08-24T06:07:15;101886.31;;;20.97;100.00
58955;BME280;45815;52.334;5.024;2022-08-24T06:09:46;101885.41;;;21.00;100.00
58955;BME280;45815;52.334;5.024;2022-08-24T06:12:11;101884.53;;;21.01;100.00
58955;BME280;45815;52.334;5.024;2022-08-24T06:14:36;101886.28;;;21.03;100.00
58955;BME280;45815;52.334;5.024;2022-08-24T06:17:05;101893.38;;;21.06;100.00
58955;BME280;45815;52.334;5.024;2022-08-24T06:19:31;101896.94;;;21.08;100.00
58955;BME280;45815;52.334;5.024;2022-08-24T06:21:57;101890.69;;;21.11;100.00
58955;BME280;45815;52.334;5.024;2022-08-24T06:24:25;101896.91;;;21.14;100.00
58955;BME280;45815;52.334;5.024;2022-08-24T06:27:17;101899.50;;;21.19;100.00
58955;BME280;45815;52.334;5.024;2022-08-24T06:29:45;101898.59;;;21.24;100.00
58955;BME280;45815;52.334;5.024;2022-08-24T06:32:27;101898.53;;;21.27;100.00
58955;BME280;45815;52.334;5.024;2022-08-24T06:34:56;101901.19;;;21.34;100.00
58955;BME280;45815;52.334;5.024;2022-08-24T06:37:23;101899.34;;;21.39;100.00
58955;BME280;45815;52.334;5.024;2022-08-24T06:39:51;101897.59;;;21.42;100.00
58955;BME280;45815;52.334;5.024;2022-08-24T06:42:17;101906.44;;;21.46;100.00
58955;BME280;45815;52.334;5.024;2022-08-24T06:44:42;101909.06;;;21.49;100.00
58955;BME280;45815;52.334;5.024;2022-08-24T06:47:16;101900.13;;;21.52;100.00
58955;BME280;45815;52.334;5.024;2022-08-24T06:49:42;101897.47;;;21.55;100.00
58955;BME280;45815;52.334;5.024;2022-08-24T06:52:07;101898.28;;;21.58;100.00
58955;BME280;45815;52.334;5.024;2022-08-24T06:54:36;101902.72;;;21.62;100.00
58955;BME280;45815;52.334;5.024;2022-08-24T06:57:02;101898.25;;;21.63;100.00
58955;BME280;45815;52.334;5.024;2022-08-24T06:59:28;101892.03;;;21.62;100.00
58955;BME280;45815;52.334;5.024;2022-08-24T07:01:56;101900.06;;;21.61;100.00
58955;BME280;45815;52.334;5.024;2022-08-24T07:04:24;101897.38;;;21.64;100.00
58955;BME280;45815;52.334;5.024;2022-08-24T07:07:13;101898.22;;;21.69;100.00
58955;BME280;45815;52.334;5.024;2022-08-24T07:09:40;101900.84;;;21.72;100.00
58955;BME280;45815;52.334;5.024;2022-08-24T07:12:05;101898.16;;;21.74;100.00
58955;BME280;45815;52.334;5.024;2022-08-24T07:14:31;101894.56;;;21.75;100.00
58955;BME280;45815;52.334;5.024;2022-08-24T07:16:57;101901.72;;;21.73;100.00
58955;BME280;45815;52.334;5.024;2022-08-24T07:19:23;101895.44;;;21.77;100.00
58955;BME280;45815;52.334;5.024;2022-08-24T07:21:48;101906.13;;;21.80;100.00
58955;BME280;45815;52.334;5.024;2022-08-24T07:24:15;101902.50;;;21.84;100.00
58955;BME280;45815;52.334;5.024;2022-08-24T07:26:41;101910.47;;;21.90;100.00
58955;BME280;45815;52.334;5.024;2022-08-24T07:29:11;101906.81;;;21.97;100.00
58955;BME280;45815;52.334;5.024;2022-08-24T07:31:41;101911.19;;;22.03;100.00
58955;BME280;45815;52.334;5.024;2022-08-24T07:34:13;101903.13;;;22.07;100.00
58955;BME280;45815;52.334;5.024;2022-08-24T07:36:38;101911.06;;;22.15;100.00
58955;BME280;45815;52.334;5.024;2022-08-24T07:39:07;101911.91;;;22.19;100.00
58955;BME280;45815;52.334;5.024;2022-08-24T07:41:39;101910.09;;;22.24;100.00
58955;BME280;45815;52.334;5.024;2022-08-24T07:44:05;101904.72;;;22.24;100.00
58955;BME280;45815;52.334;5.024;2022-08-24T07:46:31;101898.44;;;22.29;100.00
58955;BME280;45815;52.334;5.024;2022-08-24T07:48:57;101906.34;;;22.37;100.00
58955;BME280;45815;52.334;5.024;2022-08-24T07:51:22;101909.84;;;22.42;100.00
58955;BME280;45815;52.334;5.024;2022-08-24T07:53:48;101906.25;;;22.46;100.00
58955;BME280;45815;52.334;5.024;2022-08-24T07:56:13;101903.50;;;22.51;100.00
58955;BME280;45815;52.334;5.024;2022-08-24T07:58:42;101905.19;;;22.60;100.00
58955;BME280;45815;52.334;5.024;2022-08-24T08:01:08;101909.50;;;22.68;100.00
58955;BME280;45815;52.334;5.024;2022-08-24T08:03:34;101909.41;;;22.76;100.00
58955;BME280;45815;52.334;5.024;2022-08-24T08:06:01;101905.72;;;22.83;100.00
58955;BME280;45815;52.334;5.024;2022-08-24T08:08:27;101913.63;;;22.91;100.00
58955;BME280;45815;52.334;5.024;2022-08-24T08:10:53;101922.44;;;23.01;100.00
58955;BME280;45815;52.334;5.024;2022-08-24T08:13:19;101906.22;;;23.11;100.00
58955;BME280;45815;52.334;5.024;2022-08-24T08:15:46;101913.22;;;23.18;100.00
58955;BME280;45815;52.334;5.024;2022-08-24T08:18:11;101904.97;;;23.32;100.00
58955;BME280;45815;52.334;5.024;2022-08-24T08:20:39;101904.75;;;23.46;100.00
58955;BME280;45815;52.334;5.024;2022-08-24T08:23:05;101908.06;;;23.59;100.00
58955;BME280;45815;52.334;5.024;2022-08-24T08:26:13;101905.16;;;23.74;100.00
58955;BME280;45815;52.334;5.024;2022-08-24T08:29:15;101895.06;;;23.86;100.00
58955;BME280;45815;52.334;5.024;2022-08-24T08:31:42;101903.53;;;24.11;100.00
58955;BME280;45815;52.334;5.024;2022-08-24T08:34:08;101909.34;;;24.33;100.00
58955;BME280;45815;52.334;5.024;2022-08-24T08:36:35;101912.47;;;24.55;100.00
58955;BME280;45815;52.334;5.024;2022-08-24T08:39:01;101911.22;;;24.70;100.00
58955;BME280;45815;52.334;5.024;2022-08-24T08:41:38;101911.69;;;24.89;100.00
58955;BME280;45815;52.334;5.024;2022-08-24T08:47:45;101904.56;;;25.25;100.00
58955;BME280;45815;52.334;5.024;2022-08-24T08:50:00;101904.44;;;25.31;100.00
58955;BME280;45815;52.334;5.024;2022-08-24T09:00:17;101902.34;;;26.08;100.00
58955;BME280;45815;52.334;5.024;2022-08-24T09:02:52;101904.38;;;26.31;100.00
58955;BME280;45815;52.334;5.024;2022-08-24T09:13:30;101899.72;;;26.95;100.00
58955;BME280;45815;52.334;5.024;2022-08-24T09:25:57;101893.16;;;28.08;100.00
58955;BME280;45815;52.334;5.024;2022-08-24T09:31:00;101897.03;;;28.24;100.00
58955;BME280;45815;52.334;5.024;2022-08-24T09:36:07;101905.97;;;28.50;100.00
58955;BME280;45815;52.334;5.024;2022-08-24T09:43:59;101897.19;;;28.89;100.00
58955;BME280;45815;52.334;5.024;2022-08-24T09:49:07;101897.63;;;29.00;100.00
58955;BME280;45815;52.334;5.024;2022-08-24T10:04:29;101880.00;;;30.16;100.00
58955;BME280;45815;52.334;5.024;2022-08-24T10:09:52;101879.63;;;30.04;100.00
58955;BME280;45815;52.334;5.024;2022-08-24T10:12:40;101869.88;;;30.19;100.00
58955;BME280;45815;52.334;5.024;2022-08-24T10:18:02;101873.28;;;30.43;100.00
58955;BME280;45815;52.334;5.024;2022-08-24T10:34:25;101870.84;;;31.11;100.00
58955;BME280;45815;52.334;5.024;2022-08-24T10:39:42;101868.59;;;30.83;100.00
58955;BME280;45815;52.334;5.024;2022-08-24T10:42:15;101860.72;;;31.15;100.00
58955;BME280;45815;52.334;5.024;2022-08-24T10:53:11;101855.81;;;31.41;100.00
58955;BME280;45815;52.334;5.024;2022-08-24T10:55:38;101856.94;;;31.54;100.00
58955;BME280;45815;52.334;5.024;2022-08-24T10:58:29;101858.13;;;31.48;100.00
58955;BME280;45815;52.334;5.024;2022-08-24T11:01:11;101852.75;;;31.64;100.00
58955;BME280;45815;52.334;5.024;2022-08-24T11:03:46;101854.13;;;32.06;100.00
58955;BME280;45815;52.334;5.024;2022-08-24T11:06:15;101858.03;;;32.01;100.00
58955;BME280;45815;52.334;5.024;2022-08-24T11:08:42;101850.16;;;31.96;100.00
58955;BME280;45815;52.334;5.024;2022-08-24T11:11:21;101848.97;;;32.17;100.00
58955;BME280;45815;52.334;5.024;2022-08-24T11:16:45;101844.44;;;32.01;100.00
58955;BME280;45815;52.334;5.024;2022-08-24T11:19:28;101850.59;;;32.04;100.00
58955;BME280;45815;52.334;5.024;2022-08-24T11:21:57;101850.72;;;31.85;100.00
58955;BME280;45815;52.334;5.024;2022-08-24T11:24:38;101851.16;;;32.11;100.00
58955;BME280;45815;52.334;5.024;2022-08-24T11:27:07;101846.44;;;32.46;100.00
58955;BME280;45815;52.334;5.024;2022-08-24T11:29:55;101852.38;;;32.37;100.00
58955;BME280;45815;52.334;5.024;2022-08-24T11:35:45;101843.25;;;33.01;93.44
58955;BME280;45815;52.334;5.024;2022-08-24T11:37:55;101838.22;;;33.10;96.95
58955;BME280;45815;52.334;5.024;2022-08-24T11:40:25;101842.56;;;33.58;100.00
58955;BME280;45815;52.334;5.024;2022-08-24T11:43:10;101836.25;;;33.87;88.68
58955;BME280;45815;52.334;5.024;2022-08-24T11:48:34;101829.50;;;34.35;87.97
58955;BME280;45815;52.334;5.024;2022-08-24T11:54:22;101821.50;;;34.74;84.55
58955;BME280;45815;52.334;5.024;2022-08-24T12:01:45;101827.72;;;34.34;83.84
58955;BME280;45815;52.334;5.024;2022-08-24T12:04:19;101828.59;;;34.49;89.79
58955;BME280;45815;52.334;5.024;2022-08-24T12:06:55;101827.84;;;34.33;76.60
58955;BME280;45815;52.334;5.024;2022-08-24T12:12:14;101837.38;;;34.40;81.31
58955;BME280;45815;52.334;5.024;2022-08-24T12:14:42;101832.50;;;34.02;77.29
58955;BME280;45815;52.334;5.024;2022-08-24T12:19:45;101836.00;;;34.47;75.69
58955;BME280;45815;52.334;5.024;2022-08-24T12:22:12;101833.44;;;34.44;77.90
58955;BME280;45815;52.334;5.024;2022-08-24T12:27:11;101830.94;;;34.95;74.04
58955;BME280;45815;52.334;5.024;2022-08-24T12:32:09;101823.72;;;35.21;72.72
58955;BME280;45815;52.334;5.024;2022-08-24T12:37:04;101826.28;;;35.88;69.71
58955;BME280;45815;52.334;5.024;2022-08-24T12:39:34;101826.59;;;35.84;67.09
58955;BME280;45815;52.334;5.024;2022-08-24T12:44:41;101824.78;;;35.71;66.00
58955;BME280;45815;52.334;5.024;2022-08-24T12:47:07;101832.78;;;35.99;69.74
58955;BME280;45815;52.334;5.024;2022-08-24T12:49:34;101830.38;;;36.56;64.58
58955;BME280;45815;52.334;5.024;2022-08-24T13:17:44;101826.41;;;38.46;45.29
58955;BME280;45815;52.334;5.024;2022-08-24T13:22:59;101825.94;;;38.52;42.89
58955;BME280;45815;52.334;5.024;2022-08-24T13:25:50;101827.47;;;38.66;45.76
58955;BME280;45815;52.334;5.024;2022-08-24T13:33:16;101821.34;;;38.18;46.32
58955;BME280;45815;52.334;5.024;2022-08-24T13:40:47;101820.28;;;37.41;50.73
58955;BME280;45815;52.334;5.024;2022-08-24T13:43:16;101824.19;;;37.83;46.83
58955;BME280;45815;52.334;5.024;2022-08-24T13:48:19;101818.81;;;38.38;44.82
58955;BME280;45815;52.334;5.024;2022-08-24T13:55:51;101817.78;;;37.37;46.97
58955;BME280;45815;52.334;5.024;2022-08-24T14:08:53;101819.63;;;35.01;67.84
58955;BME280;45815;52.334;5.024;2022-08-24T14:13:50;101819.63;;;34.47;71.80
58955;BME280;45815;52.334;5.024;2022-08-24T14:21:34;101812.88;;;33.82;78.23
58955;BME280;45815;52.334;5.024;2022-08-24T14:24:02;101817.56;;;33.66;79.69
58955;BME280;45815;52.334;5.024;2022-08-24T14:44:59;101802.06;;;32.46;94.37
58955;BME280;45815;52.334;5.024;2022-08-24T14:55:02;101803.22;;;31.76;100.00
58955;BME280;45815;52.334;5.024;2022-08-24T15:00:18;101792.13;;;31.48;100.00
58955;BME280;45815;52.334;5.024;2022-08-24T15:13:05;101789.94;;;31.54;100.00
58955;BME280;45815;52.334;5.024;2022-08-24T15:15:43;101790.63;;;31.42;100.00
58955;BME280;45815;52.334;5.024;2022-08-24T15:20:47;101784.31;;;31.24;100.00
58955;BME280;45815;52.334;5.024;2022-08-24T15:26:02;101783.34;;;31.08;100.00
58955;BME280;45815;52.334;5.024;2022-08-24T15:28:29;101786.59;;;30.97;100.00
58955;BME280;45815;52.334;5.024;2022-08-24T15:30:57;101783.66;;;31.02;100.00
58955;BME280;45815;52.334;5.024;2022-08-24T15:33:23;101789.09;;;31.02;100.00
58955;BME280;45815;52.334;5.024;2022-08-24T15:35:50;101786.75;;;31.29;100.00
58955;BME280;45815;52.334;5.024;2022-08-24T15:41:03;101786.34;;;31.37;100.00
58955;BME280;45815;52.334;5.024;2022-08-24T15:43:29;101797.06;;;31.22;100.00
58955;BME280;45815;52.334;5.024;2022-08-24T15:45:54;101790.22;;;31.15;100.00
58955;BME280;45815;52.334;5.024;2022-08-24T15:48:21;101787.50;;;30.98;100.00
58955;BME280;45815;52.334;5.024;2022-08-24T15:50:48;101793.94;;;30.95;100.00
58955;BME280;45815;52.334;5.024;2022-08-24T15:53:28;101790.47;;;30.93;100.00
58955;BME280;45815;52.334;5.024;2022-08-24T15:55:54;101787.88;;;30.90;100.00
58955;BME280;45815;52.334;5.024;2022-08-24T15:58:32;101788.13;;;30.85;100.00
58955;BME280;45815;52.334;5.024;2022-08-24T16:03:53;101790.09;;;30.82;100.00
58955;BME280;45815;52.334;5.024;2022-08-24T16:06:22;101786.66;;;30.78;100.00
58955;BME280;45815;52.334;5.024;2022-08-24T16:08:58;101776.81;;;30.95;100.00
58955;BME280;45815;52.334;5.024;2022-08-24T16:11:29;101789.34;;;31.15;100.00
58955;BME280;45815;52.334;5.024;2022-08-24T16:13:54;101792.03;;;31.32;100.00
58955;BME280;45815;52.334;5.024;2022-08-24T16:16:29;101790.09;;;31.34;100.00
58955;BME280;45815;52.334;5.024;2022-08-24T16:18:58;101794.75;;;31.15;100.00
58955;BME280;45815;52.334;5.024;2022-08-24T16:26:30;101793.16;;;30.93;100.00
58955;BME280;45815;52.334;5.024;2022-08-24T16:28:55;101798.97;;;30.85;100.00
58955;BME280;45815;52.334;5.024;2022-08-24T16:34:18;101789.03;;;30.67;100.00
58955;BME280;45815;52.334;5.024;2022-08-24T16:36:44;101793.16;;;30.57;100.00
58955;BME280;45815;52.334;5.024;2022-08-24T16:39:09;101798.31;;;30.44;100.00
58955;BME280;45815;52.334;5.024;2022-08-24T16:41:35;101796.28;;;30.30;100.00
58955;BME280;45815;52.334;5.024;2022-08-24T16:44:04;101804.19;;;30.16;100.00
58955;BME280;45815;52.334;5.024;2022-08-24T16:46:29;101801.09;;;30.04;100.00
58955;BME280;45815;52.334;5.024;2022-08-24T16:48:54;101799.09;;;29.89;100.00